Terminal Aerodrome Forecast
Issued by NWS

Home | Current Version | Previous Version | Text Only | Print | Product List | Glossary On
Versions: 1 2 3 4 5 6 7 8 9 10 11 12
397
FTUS45 KREV 291757
TAFMMH
TAF
KMMH 291757Z 2918/3018 13006KT P6SM FEW100 BKN200
     FM300000 27010G18KT P6SM SCT080 BKN180
     FM301200 28022G32KT P6SM SCT080 BKN120 WS020/30045KT
     FM301500 30024G40KT P6SM -SHRASN BKN050 BKN100=

USA.gov is the U.S. government's official web portal to all federal, state and local government web resources and services.